sensor_id;sensor_type;location;lat;lon;timestamp;P1;durP1;ratioP1;P2;durP2;ratioP2
67508;SDS011;54354;44.724;11.284;2022-08-03T00:01:23;5.00;;;1.10;;
67508;SDS011;54354;44.724;11.284;2022-08-03T00:03:48;5.82;;;1.20;;
67508;SDS011;54354;44.724;11.284;2022-08-03T00:06:14;2.42;;;1.17;;
67508;SDS011;54354;44.724;11.284;2022-08-03T00:08:39;5.13;;;1.20;;
67508;SDS011;54354;44.724;11.284;2022-08-03T00:11:05;3.45;;;1.00;;
67508;SDS011;54354;44.724;11.284;2022-08-03T00:13:31;8.80;;;1.10;;
67508;SDS011;54354;44.724;11.284;2022-08-03T00:15:57;4.22;;;1.10;;
67508;SDS011;54354;44.724;11.284;2022-08-03T00:18:23;4.15;;;1.10;;
67508;SDS011;54354;44.724;11.284;2022-08-03T00:20:49;3.58;;;1.10;;
67508;SDS011;54354;44.724;11.284;2022-08-03T00:23:14;6.38;;;1.15;;
67508;SDS011;54354;44.724;11.284;2022-08-03T00:25:40;5.30;;;1.40;;
67508;SDS011;54354;44.724;11.284;2022-08-03T00:28:07;6.28;;;1.30;;
67508;SDS011;54354;44.724;11.284;2022-08-03T00:30:33;5.75;;;1.23;;
67508;SDS011;54354;44.724;11.284;2022-08-03T00:32:59;1.67;;;1.15;;
67508;SDS011;54354;44.724;11.284;2022-08-03T00:35:34;3.15;;;1.20;;
67508;SDS011;54354;44.724;11.284;2022-08-03T00:38:00;8.50;;;1.27;;
67508;SDS011;54354;44.724;11.284;2022-08-03T00:40:25;1.95;;;1.00;;
67508;SDS011;54354;44.724;11.284;2022-08-03T00:42:53;7.85;;;1.30;;
67508;SDS011;54354;44.724;11.284;2022-08-03T00:45:21;3.17;;;1.30;;
67508;SDS011;54354;44.724;11.284;2022-08-03T00:47:48;3.72;;;1.30;;
67508;SDS011;54354;44.724;11.284;2022-08-03T00:50:14;3.50;;;1.55;;
67508;SDS011;54354;44.724;11.284;2022-08-03T00:52:41;4.95;;;1.25;;
67508;SDS011;54354;44.724;11.284;2022-08-03T00:55:07;3.00;;;1.13;;
67508;SDS011;54354;44.724;11.284;2022-08-03T00:57:33;3.38;;;1.35;;
67508;SDS011;54354;44.724;11.284;2022-08-03T00:59:59;7.47;;;1.42;;
67508;SDS011;54354;44.724;11.284;2022-08-03T01:02:35;4.70;;;1.20;;
67508;SDS011;54354;44.724;11.284;2022-08-03T01:05:02;6.00;;;1.40;;
67508;SDS011;54354;44.724;11.284;2022-08-03T01:16:11;3.85;;;1.42;;
67508;SDS011;54354;44.724;11.284;2022-08-03T01:21:06;6.13;;;1.50;;
67508;SDS011;54354;44.724;11.284;2022-08-03T01:32:07;4.28;;;1.20;;
67508;SDS011;54354;44.724;11.284;2022-08-03T01:34:39;6.22;;;1.48;;
67508;SDS011;54354;44.724;11.284;2022-08-03T01:37:09;7.03;;;1.40;;
67508;SDS011;54354;44.724;11.284;2022-08-03T01:39:38;4.68;;;1.45;;
67508;SDS011;54354;44.724;11.284;2022-08-03T01:42:06;3.38;;;1.30;;
67508;SDS011;54354;44.724;11.284;2022-08-03T01:44:40;4.00;;;1.10;;
67508;SDS011;54354;44.724;11.284;2022-08-03T01:47:13;8.10;;;1.40;;
67508;SDS011;54354;44.724;11.284;2022-08-03T01:49:42;5.03;;;1.55;;
67508;SDS011;54354;44.724;11.284;2022-08-03T01:52:09;6.87;;;1.70;;
67508;SDS011;54354;44.724;11.284;2022-08-03T01:54:37;6.13;;;1.67;;
67508;SDS011;54354;44.724;11.284;2022-08-03T01:57:07;4.15;;;1.63;;
67508;SDS011;54354;44.724;11.284;2022-08-03T01:59:34;6.25;;;1.70;;
67508;SDS011;54354;44.724;11.284;2022-08-03T02:02:02;2.22;;;1.70;;
67508;SDS011;54354;44.724;11.284;2022-08-03T02:04:29;4.25;;;1.63;;
67508;SDS011;54354;44.724;11.284;2022-08-03T02:06:54;2.90;;;1.75;;
67508;SDS011;54354;44.724;11.284;2022-08-03T02:09:22;4.13;;;1.75;;
67508;SDS011;54354;44.724;11.284;2022-08-03T02:11:51;9.35;;;1.75;;
67508;SDS011;54354;44.724;11.284;2022-08-03T02:14:17;3.53;;;1.58;;
67508;SDS011;54354;44.724;11.284;2022-08-03T02:16:44;7.85;;;1.60;;
67508;SDS011;54354;44.724;11.284;2022-08-03T02:19:10;3.42;;;1.80;;
67508;SDS011;54354;44.724;11.284;2022-08-03T02:21:36;6.25;;;1.90;;
67508;SDS011;54354;44.724;11.284;2022-08-03T02:24:03;4.57;;;2.30;;
67508;SDS011;54354;44.724;11.284;2022-08-03T02:26:30;4.20;;;1.80;;
67508;SDS011;54354;44.724;11.284;2022-08-03T02:28:58;4.82;;;2.05;;
67508;SDS011;54354;44.724;11.284;2022-08-03T02:31:28;5.95;;;2.25;;
67508;SDS011;54354;44.724;11.284;2022-08-03T02:34:00;3.85;;;1.83;;
67508;SDS011;54354;44.724;11.284;2022-08-03T02:36:28;5.30;;;2.10;;
67508;SDS011;54354;44.724;11.284;2022-08-03T02:38:57;2.85;;;1.98;;
67508;SDS011;54354;44.724;11.284;2022-08-03T02:41:31;3.63;;;2.10;;
67508;SDS011;54354;44.724;11.284;2022-08-03T02:44:01;4.30;;;2.30;;
67508;SDS011;54354;44.724;11.284;2022-08-03T02:46:32;3.13;;;2.28;;
67508;SDS011;54354;44.724;11.284;2022-08-03T02:51:29;3.65;;;2.20;;
67508;SDS011;54354;44.724;11.284;2022-08-03T02:53:56;5.25;;;2.20;;
67508;SDS011;54354;44.724;11.284;2022-08-03T02:56:26;5.70;;;2.67;;
67508;SDS011;54354;44.724;11.284;2022-08-03T02:58:52;4.45;;;2.40;;
67508;SDS011;54354;44.724;11.284;2022-08-03T03:01:19;4.00;;;2.70;;
67508;SDS011;54354;44.724;11.284;2022-08-03T03:03:47;5.25;;;2.30;;
67508;SDS011;54354;44.724;11.284;2022-08-03T03:06:16;4.53;;;2.45;;
67508;SDS011;54354;44.724;11.284;2022-08-03T03:08:42;3.63;;;2.50;;
67508;SDS011;54354;44.724;11.284;2022-08-03T03:11:08;4.22;;;2.45;;
67508;SDS011;54354;44.724;11.284;2022-08-03T03:13:35;4.90;;;2.72;;
67508;SDS011;54354;44.724;11.284;2022-08-03T03:16:02;4.20;;;2.60;;
67508;SDS011;54354;44.724;11.284;2022-08-03T03:18:30;7.70;;;2.55;;
67508;SDS011;54354;44.724;11.284;2022-08-03T03:20:58;4.40;;;2.60;;
67508;SDS011;54354;44.724;11.284;2022-08-03T03:23:26;4.38;;;2.97;;
67508;SDS011;54354;44.724;11.284;2022-08-03T03:25:53;8.57;;;2.92;;
67508;SDS011;54354;44.724;11.284;2022-08-03T03:28:21;7.82;;;3.33;;
67508;SDS011;54354;44.724;11.284;2022-08-03T03:30:48;3.92;;;3.30;;
67508;SDS011;54354;44.724;11.284;2022-08-03T03:33:14;7.22;;;3.20;;
67508;SDS011;54354;44.724;11.284;2022-08-03T03:35:40;9.57;;;3.97;;
67508;SDS011;54354;44.724;11.284;2022-08-03T03:38:07;5.82;;;3.30;;
67508;SDS011;54354;44.724;11.284;2022-08-03T03:40:39;7.05;;;3.38;;
67508;SDS011;54354;44.724;11.284;2022-08-03T03:43:09;6.35;;;3.50;;
67508;SDS011;54354;44.724;11.284;2022-08-03T03:48:02;9.82;;;3.97;;
67508;SDS011;54354;44.724;11.284;2022-08-03T03:50:29;7.28;;;3.45;;
67508;SDS011;54354;44.724;11.284;2022-08-03T03:52:56;5.38;;;4.18;;
67508;SDS011;54354;44.724;11.284;2022-08-03T03:55:24;7.80;;;3.65;;
67508;SDS011;54354;44.724;11.284;2022-08-03T03:57:50;4.93;;;3.60;;
67508;SDS011;54354;44.724;11.284;2022-08-03T04:00:16;6.65;;;3.97;;
67508;SDS011;54354;44.724;11.284;2022-08-03T04:02:42;5.97;;;3.70;;
67508;SDS011;54354;44.724;11.284;2022-08-03T04:05:09;7.85;;;3.38;;
67508;SDS011;54354;44.724;11.284;2022-08-03T04:08:03;6.68;;;3.70;;
67508;SDS011;54354;44.724;11.284;2022-08-03T04:16:25;11.85;;;3.70;;
67508;SDS011;54354;44.724;11.284;2022-08-03T04:18:54;6.85;;;3.40;;
67508;SDS011;54354;44.724;11.284;2022-08-03T04:21:23;10.02;;;3.63;;
67508;SDS011;54354;44.724;11.284;2022-08-03T04:23:51;4.85;;;3.55;;
67508;SDS011;54354;44.724;11.284;2022-08-03T04:26:20;6.93;;;3.97;;
67508;SDS011;54354;44.724;11.284;2022-08-03T04:28:47;5.38;;;3.50;;
67508;SDS011;54354;44.724;11.284;2022-08-03T04:31:19;9.57;;;3.80;;
67508;SDS011;54354;44.724;11.284;2022-08-03T04:33:46;4.05;;;3.50;;
67508;SDS011;54354;44.724;11.284;2022-08-03T04:36:15;9.18;;;4.00;;
67508;SDS011;54354;44.724;11.284;2022-08-03T04:38:59;5.88;;;3.88;;
67508;SDS011;54354;44.724;11.284;2022-08-03T04:41:28;4.72;;;4.30;;
67508;SDS011;54354;44.724;11.284;2022-08-03T04:43:56;6.80;;;4.00;;
67508;SDS011;54354;44.724;11.284;2022-08-03T04:46:37;7.10;;;3.95;;
67508;SDS011;54354;44.724;11.284;2022-08-03T04:49:04;7.20;;;4.00;;
67508;SDS011;54354;44.724;11.284;2022-08-03T04:51:31;9.25;;;3.70;;
67508;SDS011;54354;44.724;11.284;2022-08-03T04:53:59;7.78;;;3.63;;
67508;SDS011;54354;44.724;11.284;2022-08-03T04:56:25;9.00;;;4.35;;
67508;SDS011;54354;44.724;11.284;2022-08-03T04:58:50;4.50;;;3.53;;
67508;SDS011;54354;44.724;11.284;2022-08-03T05:01:16;4.43;;;3.58;;
67508;SDS011;54354;44.724;11.284;2022-08-03T05:04:02;5.82;;;3.72;;
67508;SDS011;54354;44.724;11.284;2022-08-03T05:06:27;8.25;;;3.90;;
67508;SDS011;54354;44.724;11.284;2022-08-03T05:08:53;5.40;;;3.97;;
67508;SDS011;54354;44.724;11.284;2022-08-03T05:11:19;7.82;;;3.40;;
67508;SDS011;54354;44.724;11.284;2022-08-03T05:13:45;4.10;;;3.60;;
67508;SDS011;54354;44.724;11.284;2022-08-03T05:16:10;4.45;;;4.07;;
67508;SDS011;54354;44.724;11.284;2022-08-03T05:18:36;6.07;;;3.92;;
67508;SDS011;54354;44.724;11.284;2022-08-03T05:21:02;5.47;;;4.07;;
67508;SDS011;54354;44.724;11.284;2022-08-03T05:23:29;5.90;;;3.97;;
67508;SDS011;54354;44.724;11.284;2022-08-03T05:25:54;8.68;;;4.32;;
67508;SDS011;54354;44.724;11.284;2022-08-03T05:28:20;5.07;;;3.58;;
67508;SDS011;54354;44.724;11.284;2022-08-03T05:30:46;7.18;;;3.72;;
67508;SDS011;54354;44.724;11.284;2022-08-03T05:33:11;5.38;;;4.32;;
67508;SDS011;54354;44.724;11.284;2022-08-03T05:35:37;5.32;;;3.90;;
67508;SDS011;54354;44.724;11.284;2022-08-03T05:38:03;9.55;;;3.88;;
67508;SDS011;54354;44.724;11.284;2022-08-03T05:40:30;2.92;;;2.60;;
67508;SDS011;54354;44.724;11.284;2022-08-03T05:42:56;4.97;;;4.25;;
67508;SDS011;54354;44.724;11.284;2022-08-03T05:45:22;5.45;;;4.53;;
67508;SDS011;54354;44.724;11.284;2022-08-03T05:47:48;4.70;;;4.30;;
67508;SDS011;54354;44.724;11.284;2022-08-03T05:50:25;5.20;;;4.25;;
67508;SDS011;54354;44.724;11.284;2022-08-03T05:52:53;5.32;;;4.82;;
67508;SDS011;54354;44.724;11.284;2022-08-03T05:55:28;10.50;;;5.70;;
67508;SDS011;54354;44.724;11.284;2022-08-03T05:57:53;11.85;;;6.93;;
67508;SDS011;54354;44.724;11.284;2022-08-03T06:00:19;7.38;;;5.65;;
67508;SDS011;54354;44.724;11.284;2022-08-03T06:02:44;5.50;;;4.38;;
67508;SDS011;54354;44.724;11.284;2022-08-03T06:05:10;9.45;;;4.97;;
67508;SDS011;54354;44.724;11.284;2022-08-03T06:07:36;8.20;;;4.55;;
67508;SDS011;54354;44.724;11.284;2022-08-03T06:10:02;7.70;;;4.68;;
67508;SDS011;54354;44.724;11.284;2022-08-03T06:12:29;8.75;;;4.90;;
67508;SDS011;54354;44.724;11.284;2022-08-03T06:14:55;11.02;;;4.85;;
67508;SDS011;54354;44.724;11.284;2022-08-03T06:17:21;9.30;;;3.95;;
67508;SDS011;54354;44.724;11.284;2022-08-03T06:19:47;9.20;;;5.53;;
67508;SDS011;54354;44.724;11.284;2022-08-03T06:22:13;9.80;;;5.45;;
67508;SDS011;54354;44.724;11.284;2022-08-03T06:24:45;8.23;;;5.05;;
67508;SDS011;54354;44.724;11.284;2022-08-03T06:27:11;10.27;;;4.32;;
67508;SDS011;54354;44.724;11.284;2022-08-03T06:29:37;7.78;;;3.85;;
67508;SDS011;54354;44.724;11.284;2022-08-03T06:32:02;8.30;;;4.57;;
67508;SDS011;54354;44.724;11.284;2022-08-03T06:34:28;7.25;;;3.17;;
67508;SDS011;54354;44.724;11.284;2022-08-03T06:36:53;7.03;;;3.08;;
67508;SDS011;54354;44.724;11.284;2022-08-03T06:39:19;5.70;;;3.92;;
67508;SDS011;54354;44.724;11.284;2022-08-03T06:41:45;8.93;;;4.30;;
67508;SDS011;54354;44.724;11.284;2022-08-03T06:44:11;9.18;;;4.30;;
67508;SDS011;54354;44.724;11.284;2022-08-03T06:46:37;5.45;;;2.42;;
67508;SDS011;54354;44.724;11.284;2022-08-03T06:49:02;6.18;;;2.60;;
67508;SDS011;54354;44.724;11.284;2022-08-03T06:51:28;4.70;;;2.45;;
67508;SDS011;54354;44.724;11.284;2022-08-03T06:53:53;5.18;;;2.35;;
67508;SDS011;54354;44.724;11.284;2022-08-03T06:56:19;6.82;;;3.58;;
67508;SDS011;54354;44.724;11.284;2022-08-03T06:58:51;5.38;;;2.33;;
67508;SDS011;54354;44.724;11.284;2022-08-03T07:01:17;7.22;;;3.10;;
67508;SDS011;54354;44.724;11.284;2022-08-03T07:03:43;3.70;;;1.98;;
67508;SDS011;54354;44.724;11.284;2022-08-03T07:06:08;3.30;;;1.98;;
67508;SDS011;54354;44.724;11.284;2022-08-03T07:08:34;2.72;;;1.60;;
67508;SDS011;54354;44.724;11.284;2022-08-03T07:10:59;4.38;;;2.22;;
67508;SDS011;54354;44.724;11.284;2022-08-03T07:13:25;4.47;;;2.10;;
67508;SDS011;54354;44.724;11.284;2022-08-03T07:15:51;4.88;;;1.90;;
67508;SDS011;54354;44.724;11.284;2022-08-03T07:18:16;5.80;;;2.03;;
67508;SDS011;54354;44.724;11.284;2022-08-03T07:20:42;4.45;;;1.88;;
67508;SDS011;54354;44.724;11.284;2022-08-03T07:23:07;11.30;;;2.15;;
67508;SDS011;54354;44.724;11.284;2022-08-03T07:25:34;3.75;;;1.73;;
67508;SDS011;54354;44.724;11.284;2022-08-03T07:27:59;6.10;;;1.90;;
67508;SDS011;54354;44.724;11.284;2022-08-03T07:30:25;4.68;;;1.80;;
67508;SDS011;54354;44.724;11.284;2022-08-03T07:32:50;3.78;;;1.83;;
67508;SDS011;54354;44.724;11.284;2022-08-03T07:35:16;4.25;;;1.60;;
67508;SDS011;54354;44.724;11.284;2022-08-03T07:37:41;4.95;;;1.85;;
67508;SDS011;54354;44.724;11.284;2022-08-03T07:40:07;3.22;;;1.75;;
67508;SDS011;54354;44.724;11.284;2022-08-03T07:42:32;4.10;;;1.63;;
67508;SDS011;54354;44.724;11.284;2022-08-03T07:44:58;2.60;;;1.40;;
67508;SDS011;54354;44.724;11.284;2022-08-03T07:47:25;5.95;;;1.88;;
67508;SDS011;54354;44.724;11.284;2022-08-03T07:49:52;4.88;;;1.55;;
67508;SDS011;54354;44.724;11.284;2022-08-03T07:52:18;3.88;;;1.70;;
67508;SDS011;54354;44.724;11.284;2022-08-03T07:55:03;4.45;;;1.42;;
67508;SDS011;54354;44.724;11.284;2022-08-03T07:57:30;2.95;;;1.70;;
67508;SDS011;54354;44.724;11.284;2022-08-03T07:59:56;5.75;;;1.50;;
67508;SDS011;54354;44.724;11.284;2022-08-03T08:02:21;4.13;;;1.40;;
67508;SDS011;54354;44.724;11.284;2022-08-03T08:04:47;2.58;;;1.30;;
67508;SDS011;54354;44.724;11.284;2022-08-03T08:07:12;3.03;;;1.33;;
67508;SDS011;54354;44.724;11.284;2022-08-03T08:09:37;1.42;;;1.20;;
67508;SDS011;54354;44.724;11.284;2022-08-03T08:12:03;1.85;;;1.35;;
67508;SDS011;54354;44.724;11.284;2022-08-03T08:14:29;4.95;;;1.40;;
67508;SDS011;54354;44.724;11.284;2022-08-03T08:16:55;3.05;;;1.10;;
67508;SDS011;54354;44.724;11.284;2022-08-03T08:19:20;4.18;;;1.40;;
67508;SDS011;54354;44.724;11.284;2022-08-03T08:21:46;4.55;;;1.30;;
67508;SDS011;54354;44.724;11.284;2022-08-03T08:24:13;5.32;;;1.30;;
67508;SDS011;54354;44.724;11.284;2022-08-03T08:26:40;3.35;;;1.20;;
67508;SDS011;54354;44.724;11.284;2022-08-03T08:29:06;2.20;;;1.10;;
67508;SDS011;54354;44.724;11.284;2022-08-03T08:31:31;1.55;;;1.20;;
67508;SDS011;54354;44.724;11.284;2022-08-03T08:33:57;2.30;;;1.30;;
67508;SDS011;54354;44.724;11.284;2022-08-03T08:36:22;2.60;;;1.40;;
67508;SDS011;54354;44.724;11.284;2022-08-03T08:38:48;1.50;;;1.20;;
67508;SDS011;54354;44.724;11.284;2022-08-03T08:41:14;2.95;;;1.30;;
67508;SDS011;54354;44.724;11.284;2022-08-03T08:43:41;1.23;;;0.90;;
67508;SDS011;54354;44.724;11.284;2022-08-03T08:46:11;2.00;;;1.13;;
67508;SDS011;54354;44.724;11.284;2022-08-03T08:48:41;2.30;;;1.13;;
67508;SDS011;54354;44.724;11.284;2022-08-03T08:51:08;2.58;;;0.90;;
67508;SDS011;54354;44.724;11.284;2022-08-03T08:53:36;1.80;;;1.10;;
67508;SDS011;54354;44.724;11.284;2022-08-03T08:56:04;1.75;;;1.10;;
67508;SDS011;54354;44.724;11.284;2022-08-03T08:58:37;1.83;;;1.20;;
67508;SDS011;54354;44.724;11.284;2022-08-03T09:01:08;1.45;;;1.17;;
67508;SDS011;54354;44.724;11.284;2022-08-03T09:03:34;1.92;;;1.10;;
67508;SDS011;54354;44.724;11.284;2022-08-03T09:06:00;1.95;;;1.00;;
67508;SDS011;54354;44.724;11.284;2022-08-03T09:08:27;1.35;;;1.25;;
67508;SDS011;54354;44.724;11.284;2022-08-03T09:10:53;2.13;;;1.38;;
67508;SDS011;54354;44.724;11.284;2022-08-03T09:13:18;1.50;;;1.10;;
67508;SDS011;54354;44.724;11.284;2022-08-03T09:15:44;1.42;;;1.10;;
67508;SDS011;54354;44.724;11.284;2022-08-03T09:18:10;1.55;;;1.10;;
67508;SDS011;54354;44.724;11.284;2022-08-03T09:20:37;1.10;;;1.00;;
67508;SDS011;54354;44.724;11.284;2022-08-03T09:23:06;1.63;;;1.17;;
67508;SDS011;54354;44.724;11.284;2022-08-03T09:25:35;1.10;;;1.00;;
67508;SDS011;54354;44.724;11.284;2022-08-03T09:28:11;1.52;;;1.02;;
67508;SDS011;54354;44.724;11.284;2022-08-03T09:30:39;2.38;;;1.20;;
67508;SDS011;54354;44.724;11.284;2022-08-03T09:33:08;5.35;;;1.23;;
67508;SDS011;54354;44.724;11.284;2022-08-03T09:40:36;1.00;;;0.85;;
67508;SDS011;54354;44.724;11.284;2022-08-03T09:43:02;1.10;;;1.00;;
67508;SDS011;54354;44.724;11.284;2022-08-03T09:45:27;2.35;;;1.10;;
67508;SDS011;54354;44.724;11.284;2022-08-03T09:47:54;2.58;;;1.10;;
67508;SDS011;54354;44.724;11.284;2022-08-03T09:50:20;1.08;;;1.00;;
67508;SDS011;54354;44.724;11.284;2022-08-03T09:52:46;1.13;;;0.95;;
67508;SDS011;54354;44.724;11.284;2022-08-03T09:55:15;2.08;;;1.10;;
67508;SDS011;54354;44.724;11.284;2022-08-03T09:57:41;1.10;;;0.85;;
67508;SDS011;54354;44.724;11.284;2022-08-03T10:00:12;1.40;;;1.10;;
67508;SDS011;54354;44.724;11.284;2022-08-03T10:02:40;1.98;;;1.15;;
67508;SDS011;54354;44.724;11.284;2022-08-03T10:05:07;1.42;;;1.00;;
67508;SDS011;54354;44.724;11.284;2022-08-03T10:07:47;4.10;;;1.20;;
67508;SDS011;54354;44.724;11.284;2022-08-03T10:10:14;1.48;;;1.10;;
67508;SDS011;54354;44.724;11.284;2022-08-03T10:12:41;2.13;;;1.00;;
67508;SDS011;54354;44.724;11.284;2022-08-03T10:15:08;1.15;;;1.00;;
67508;SDS011;54354;44.724;11.284;2022-08-03T10:17:34;2.55;;;1.10;;
67508;SDS011;54354;44.724;11.284;2022-08-03T10:20:00;1.17;;;1.08;;
67508;SDS011;54354;44.724;11.284;2022-08-03T10:22:34;1.15;;;0.80;;
67508;SDS011;54354;44.724;11.284;2022-08-03T10:27:40;2.65;;;1.25;;
67508;SDS011;54354;44.724;11.284;2022-08-03T10:30:09;2.95;;;1.00;;
67508;SDS011;54354;44.724;11.284;2022-08-03T10:32:50;1.38;;;1.00;;
67508;SDS011;54354;44.724;11.284;2022-08-03T10:35:20;1.10;;;1.00;;
67508;SDS011;54354;44.724;11.284;2022-08-03T10:37:54;3.20;;;1.33;;
67508;SDS011;54354;44.724;11.284;2022-08-03T10:40:23;2.33;;;1.17;;
67508;SDS011;54354;44.724;11.284;2022-08-03T10:42:52;1.10;;;0.95;;
67508;SDS011;54354;44.724;11.284;2022-08-03T10:45:21;4.10;;;1.25;;
67508;SDS011;54354;44.724;11.284;2022-08-03T10:47:50;4.03;;;1.40;;
67508;SDS011;54354;44.724;11.284;2022-08-03T10:50:17;1.75;;;1.10;;
67508;SDS011;54354;44.724;11.284;2022-08-03T10:52:57;2.30;;;1.00;;
67508;SDS011;54354;44.724;11.284;2022-08-03T10:55:34;1.85;;;1.17;;
67508;SDS011;54354;44.724;11.284;2022-08-03T11:01:04;2.15;;;1.10;;
67508;SDS011;54354;44.724;11.284;2022-08-03T11:03:30;3.42;;;1.00;;
67508;SDS011;54354;44.724;11.284;2022-08-03T11:06:18;1.45;;;1.25;;
67508;SDS011;54354;44.724;11.284;2022-08-03T11:08:46;1.70;;;1.30;;
67508;SDS011;54354;44.724;11.284;2022-08-03T11:14:01;1.20;;;1.10;;
67508;SDS011;54354;44.724;11.284;2022-08-03T11:16:39;3.47;;;1.20;;
67508;SDS011;54354;44.724;11.284;2022-08-03T11:19:08;1.30;;;1.20;;
67508;SDS011;54354;44.724;11.284;2022-08-03T11:35:25;1.80;;;1.08;;
67508;SDS011;54354;44.724;11.284;2022-08-03T11:48:41;1.30;;;1.20;;
67508;SDS011;54354;44.724;11.284;2022-08-03T11:54:04;1.92;;;1.10;;
67508;SDS011;54354;44.724;11.284;2022-08-03T11:56:47;2.40;;;1.00;;
67508;SDS011;54354;44.724;11.284;2022-08-03T11:59:14;1.30;;;1.20;;
67508;SDS011;54354;44.724;11.284;2022-08-03T12:01:42;1.30;;;1.20;;
67508;SDS011;54354;44.724;11.284;2022-08-03T12:04:10;2.38;;;1.30;;
67508;SDS011;54354;44.724;11.284;2022-08-03T12:06:35;1.75;;;1.15;;
67508;SDS011;54354;44.724;11.284;2022-08-03T12:09:19;1.27;;;1.17;;
67508;SDS011;54354;44.724;11.284;2022-08-03T12:11:49;0.98;;;0.90;;
67508;SDS011;54354;44.724;11.284;2022-08-03T12:16:41;1.20;;;1.00;;
67508;SDS011;54354;44.724;11.284;2022-08-03T12:19:11;2.60;;;1.40;;
67508;SDS011;54354;44.724;11.284;2022-08-03T12:21:47;1.60;;;1.33;;
67508;SDS011;54354;44.724;11.284;2022-08-03T12:24:16;3.80;;;1.50;;
67508;SDS011;54354;44.724;11.284;2022-08-03T12:26:45;3.20;;;1.05;;
67508;SDS011;54354;44.724;11.284;2022-08-03T12:29:18;1.70;;;1.15;;
67508;SDS011;54354;44.724;11.284;2022-08-03T12:31:47;1.20;;;1.08;;
67508;SDS011;54354;44.724;11.284;2022-08-03T12:34:13;1.13;;;1.00;;
67508;SDS011;54354;44.724;11.284;2022-08-03T12:36:48;1.20;;;1.10;;
67508;SDS011;54354;44.724;11.284;2022-08-03T12:39:15;4.82;;;1.20;;
67508;SDS011;54354;44.724;11.284;2022-08-03T12:41:41;1.73;;;1.13;;
67508;SDS011;54354;44.724;11.284;2022-08-03T12:44:07;1.42;;;1.10;;
67508;SDS011;54354;44.724;11.284;2022-08-03T12:46:34;2.05;;;1.20;;
67508;SDS011;54354;44.724;11.284;2022-08-03T12:51:56;2.03;;;1.20;;
67508;SDS011;54354;44.724;11.284;2022-08-03T12:54:23;1.00;;;1.00;;
67508;SDS011;54354;44.724;11.284;2022-08-03T12:59:23;2.92;;;1.10;;
67508;SDS011;54354;44.724;11.284;2022-08-03T13:01:52;2.33;;;1.27;;
67508;SDS011;54354;44.724;11.284;2022-08-03T13:04:25;2.78;;;1.10;;
67508;SDS011;54354;44.724;11.284;2022-08-03T13:06:56;1.35;;;1.08;;
67508;SDS011;54354;44.724;11.284;2022-08-03T13:09:23;1.40;;;1.23;;
67508;SDS011;54354;44.724;11.284;2022-08-03T13:12:06;3.40;;;1.10;;
67508;SDS011;54354;44.724;11.284;2022-08-03T13:14:33;1.27;;;1.17;;
67508;SDS011;54354;44.724;11.284;2022-08-03T13:16:59;3.80;;;1.27;;
67508;SDS011;54354;44.724;11.284;2022-08-03T13:19:24;3.22;;;1.10;;
67508;SDS011;54354;44.724;11.284;2022-08-03T13:21:50;1.23;;;1.13;;
67508;SDS011;54354;44.724;11.284;2022-08-03T13:24:15;2.50;;;1.00;;
67508;SDS011;54354;44.724;11.284;2022-08-03T13:26:41;1.17;;;1.00;;
67508;SDS011;54354;44.724;11.284;2022-08-03T13:29:06;2.05;;;1.20;;
67508;SDS011;54354;44.724;11.284;2022-08-03T13:31:32;1.05;;;0.95;;
67508;SDS011;54354;44.724;11.284;2022-08-03T13:33:58;1.33;;;1.10;;
67508;SDS011;54354;44.724;11.284;2022-08-03T13:36:23;2.80;;;1.40;;
67508;SDS011;54354;44.724;11.284;2022-08-03T13:38:49;2.75;;;1.10;;
67508;SDS011;54354;44.724;11.284;2022-08-03T13:41:15;1.42;;;1.25;;
67508;SDS011;54354;44.724;11.284;2022-08-03T13:43:41;3.60;;;1.17;;
67508;SDS011;54354;44.724;11.284;2022-08-03T13:46:06;2.53;;;1.05;;
67508;SDS011;54354;44.724;11.284;2022-08-03T13:48:32;2.25;;;1.10;;
67508;SDS011;54354;44.724;11.284;2022-08-03T13:50:57;1.52;;;1.20;;
67508;SDS011;54354;44.724;11.284;2022-08-03T13:53:23;2.20;;;1.15;;
67508;SDS011;54354;44.724;11.284;2022-08-03T13:55:51;1.25;;;1.00;;
67508;SDS011;54354;44.724;11.284;2022-08-03T13:58:16;2.58;;;1.05;;
67508;SDS011;54354;44.724;11.284;2022-08-03T14:00:42;3.10;;;0.90;;
67508;SDS011;54354;44.724;11.284;2022-08-03T14:03:07;1.83;;;1.05;;
67508;SDS011;54354;44.724;11.284;2022-08-03T14:05:33;1.13;;;1.00;;
67508;SDS011;54354;44.724;11.284;2022-08-03T14:08:00;1.40;;;1.20;;
67508;SDS011;54354;44.724;11.284;2022-08-03T14:10:26;2.92;;;1.23;;
67508;SDS011;54354;44.724;11.284;2022-08-03T14:12:51;1.20;;;1.10;;
67508;SDS011;54354;44.724;11.284;2022-08-03T14:15:17;2.50;;;1.30;;
67508;SDS011;54354;44.724;11.284;2022-08-03T14:17:42;1.25;;;1.15;;
67508;SDS011;54354;44.724;11.284;2022-08-03T14:20:08;2.15;;;1.27;;
67508;SDS011;54354;44.724;11.284;2022-08-03T14:44:22;1.50;;;1.25;;
67508;SDS011;54354;44.724;11.284;2022-08-03T14:46:47;1.23;;;1.13;;
67508;SDS011;54354;44.724;11.284;2022-08-03T14:49:13;1.20;;;1.13;;
67508;SDS011;54354;44.724;11.284;2022-08-03T14:51:39;1.98;;;1.00;;
67508;SDS011;54354;44.724;11.284;2022-08-03T14:54:04;1.65;;;1.00;;
67508;SDS011;54354;44.724;11.284;2022-08-03T14:56:30;1.70;;;1.33;;
67508;SDS011;54354;44.724;11.284;2022-08-03T14:58:55;1.30;;;1.20;;
67508;SDS011;54354;44.724;11.284;2022-08-03T15:01:21;1.35;;;1.17;;
67508;SDS011;54354;44.724;11.284;2022-08-03T15:03:46;6.10;;;1.15;;
67508;SDS011;54354;44.724;11.284;2022-08-03T15:06:31;1.23;;;1.00;;
67508;SDS011;54354;44.724;11.284;2022-08-03T15:08:57;2.10;;;1.20;;
67508;SDS011;54354;44.724;11.284;2022-08-03T15:11:22;1.88;;;1.10;;
67508;SDS011;54354;44.724;11.284;2022-08-03T15:13:48;2.20;;;1.00;;
67508;SDS011;54354;44.724;11.284;2022-08-03T15:16:13;4.22;;;1.10;;
67508;SDS011;54354;44.724;11.284;2022-08-03T15:18:39;3.20;;;1.30;;
67508;SDS011;54354;44.724;11.284;2022-08-03T15:21:05;1.73;;;1.30;;
67508;SDS011;54354;44.724;11.284;2022-08-03T15:23:30;1.90;;;1.17;;
67508;SDS011;54354;44.724;11.284;2022-08-03T15:25:56;2.13;;;1.27;;
67508;SDS011;54354;44.724;11.284;2022-08-03T15:28:21;1.13;;;1.02;;
67508;SDS011;54354;44.724;11.284;2022-08-03T15:30:47;3.30;;;1.30;;
67508;SDS011;54354;44.724;11.284;2022-08-03T15:33:12;4.22;;;0.80;;
67508;SDS011;54354;44.724;11.284;2022-08-03T15:35:38;1.20;;;1.10;;
67508;SDS011;54354;44.724;11.284;2022-08-03T15:38:03;3.05;;;1.10;;
67508;SDS011;54354;44.724;11.284;2022-08-03T15:40:29;3.25;;;1.10;;
67508;SDS011;54354;44.724;11.284;2022-08-03T15:42:54;1.13;;;1.02;;
67508;SDS011;54354;44.724;11.284;2022-08-03T15:45:20;1.38;;;1.00;;
67508;SDS011;54354;44.724;11.284;2022-08-03T15:47:45;1.30;;;1.13;;
67508;SDS011;54354;44.724;11.284;2022-08-03T15:50:11;1.27;;;1.10;;
67508;SDS011;54354;44.724;11.284;2022-08-03T15:52:37;1.20;;;0.98;;
67508;SDS011;54354;44.724;11.284;2022-08-03T15:55:02;1.35;;;1.05;;
67508;SDS011;54354;44.724;11.284;2022-08-03T15:57:28;3.65;;;1.10;;
67508;SDS011;54354;44.724;11.284;2022-08-03T15:59:54;2.92;;;1.10;;
67508;SDS011;54354;44.724;11.284;2022-08-03T16:02:20;5.20;;;1.25;;
67508;SDS011;54354;44.724;11.284;2022-08-03T16:04:45;10.27;;;1.45;;
67508;SDS011;54354;44.724;11.284;2022-08-03T16:07:11;3.10;;;1.20;;
67508;SDS011;54354;44.724;11.284;2022-08-03T16:09:40;2.42;;;1.23;;
67508;SDS011;54354;44.724;11.284;2022-08-03T16:12:05;1.60;;;1.10;;
67508;SDS011;54354;44.724;11.284;2022-08-03T16:14:31;2.08;;;1.00;;
67508;SDS011;54354;44.724;11.284;2022-08-03T16:16:57;2.17;;;1.10;;